Time;durP1;ratioP1;P1;durP2;ratioP2;P2;SDS_P1;SDS_P2;PMS_P1;PMS_P2;Temp;Humidity;BMP_temperature;BMP_pressure;BME280_temperature;BME280_humidity;BME280_pressure;Samples;Min_cycle;Max_cycle;Signal;HPM_P1;HPM_P2
2023/08/16 00:00:05;;;;;;;1.67;1.10;;;;;;;;;;6214680;23;20155;-90
2023/08/16 00:03:12;;;;;;;0.50;0.50;;;;;;;;;;6232585;23;20167;-91
2023/08/16 00:06:18;;;;;;;0.93;0.93;;;;;;;;;;6215675;23;20186;-92
2023/08/16 00:09:24;;;;;;;2.53;0.90;;;;;;;;;;6214196;23;20183;-92
2023/08/16 00:12:29;;;;;;;1.80;1.25;;;;;;;;;;6216419;23;20242;-92
2023/08/16 00:15:35;;;;;;;1.25;1.15;;;;;;;;;;6215640;23;20240;-91
2023/08/16 00:18:42;;;;;;;2.97;1.27;;;;;;;;;;6215674;23;20619;-90
2023/08/16 00:21:48;;;;;;;1.17;1.08;;;;;;;;;;6216257;23;20160;-93
2023/08/16 00:24:53;;;;;;;0.38;0.38;;;;;;;;;;6215231;23;20191;-93
2023/08/16 00:27:58;;;;;;;2.25;1.48;;;;;;;;;;6216411;23;20175;-90
2023/08/16 00:31:04;;;;;;;0.50;0.50;;;;;;;;;;6215934;23;20292;-92
2023/08/16 00:34:12;;;;;;;2.83;1.08;;;;;;;;;;6215508;23;20187;-91
2023/08/16 00:37:17;;;;;;;2.08;1.02;;;;;;;;;;6216474;23;20203;-91
2023/08/16 00:40:23;;;;;;;0.50;0.50;;;;;;;;;;6215971;23;20611;-93
2023/08/16 00:43:29;;;;;;;3.28;0.98;;;;;;;;;;6216540;23;20170;-92
2023/08/16 00:46:36;;;;;;;2.47;1.15;;;;;;;;;;6216267;23;20243;-93
2023/08/16 00:49:43;;;;;;;0.95;0.80;;;;;;;;;;6216326;23;20198;-92
2023/08/16 00:52:49;;;;;;;0.70;0.70;;;;;;;;;;6216209;23;20168;-90
2023/08/16 00:55:55;;;;;;;0.50;0.50;;;;;;;;;;6216213;23;20175;-91
2023/08/16 00:59:00;;;;;;;1.13;0.90;;;;;;;;;;6215822;23;20246;-90
2023/08/16 01:02:05;;;;;;;0.82;0.73;;;;;;;;;;6215990;23;20191;-90
2023/08/16 01:05:13;;;;;;;1.75;1.10;;;;;;;;;;6216028;23;20215;-90
2023/08/16 01:08:18;;;;;;;1.02;0.88;;;;;;;;;;6215490;23;20171;-92
2023/08/16 01:11:28;;;;;;;2.80;1.35;;;;;;;;;;6215641;23;20175;-91
2023/08/16 01:14:38;;;;;;;0.52;0.52;;;;;;;;;;6214742;23;20214;-91
2023/08/16 01:17:44;;;;;;;2.15;1.63;;;;;;;;;;6214211;23;20228;-89
2023/08/16 01:20:51;;;;;;;2.28;1.27;;;;;;;;;;6213518;23;20179;-90
2023/08/16 01:24:01;;;;;;;0.77;0.77;;;;;;;;;;6212536;23;20163;-91
2023/08/16 01:27:07;;;;;;;1.23;1.13;;;;;;;;;;6213475;23;20171;-92
2023/08/16 01:30:13;;;;;;;1.13;0.90;;;;;;;;;;6214351;23;20167;-91
2023/08/16 01:33:18;;;;;;;4.28;1.92;;;;;;;;;;6213957;23;20171;-90
2023/08/16 01:36:24;;;;;;;2.38;1.35;;;;;;;;;;6213179;23;20211;-89
2023/08/16 01:39:29;;;;;;;1.60;0.88;;;;;;;;;;6210804;23;20172;-89
2023/08/16 01:42:39;;;;;;;0.55;0.55;;;;;;;;;;6212939;23;20170;-90
2023/08/16 01:45:44;;;;;;;2.25;1.52;;;;;;;;;;6214016;23;20191;-93
2023/08/16 01:48:50;;;;;;;14.07;8.15;;;;;;;;;;6213897;23;20627;-90
2023/08/16 01:51:56;;;;;;;15.32;8.80;;;;;;;;;;6213152;23;20211;-89
2023/08/16 01:55:02;;;;;;;14.82;8.32;;;;;;;;;;6212621;23;20163;-89
2023/08/16 01:58:09;;;;;;;20.02;9.38;;;;;;;;;;6214180;23;20163;-90
2023/08/16 02:01:14;;;;;;;15.85;9.65;;;;;;;;;;6213987;23;20175;-90
2023/08/16 02:04:19;;;;;;;17.55;9.80;;;;;;;;;;6214423;23;20250;-92
2023/08/16 02:07:24;;;;;;;16.48;9.52;;;;;;;;;;6212327;23;20170;-92
2023/08/16 02:10:29;;;;;;;16.55;9.30;;;;;;;;;;6212288;23;20162;-91
2023/08/16 02:13:36;;;;;;;18.45;9.65;;;;;;;;;;6211876;23;20151;-93
2023/08/16 02:16:42;;;;;;;14.88;8.57;;;;;;;;;;6214616;23;20155;-90
2023/08/16 02:19:47;;;;;;;13.25;8.30;;;;;;;;;;6216111;23;20194;-90
2023/08/16 02:22:53;;;;;;;13.35;8.82;;;;;;;;;;6214309;23;20494;-92
2023/08/16 02:25:58;;;;;;;25.17;9.35;;;;;;;;;;6212141;23;20564;-92
2023/08/16 02:29:05;;;;;;;21.50;8.90;;;;;;;;;;6211346;23;20162;-91
2023/08/16 02:32:11;;;;;;;20.55;8.70;;;;;;;;;;6211324;23;20166;-92
2023/08/16 02:35:16;;;;;;;16.63;8.60;;;;;;;;;;6211457;23;20171;-92
2023/08/16 02:38:22;;;;;;;14.73;8.02;;;;;;;;;;6212450;23;20163;-90
2023/08/16 02:41:30;;;;;;;14.85;8.40;;;;;;;;;;6212577;23;20219;-91
2023/08/16 02:44:37;;;;;;;11.50;8.55;;;;;;;;;;6215235;23;20167;-93
2023/08/16 02:47:42;;;;;;;13.90;8.45;;;;;;;;;;6214799;23;20167;-92
2023/08/16 02:50:49;;;;;;;17.73;8.75;;;;;;;;;;6215726;23;20187;-92
2023/08/16 02:53:54;;;;;;;18.20;9.30;;;;;;;;;;6216137;23;20227;-92
2023/08/16 02:56:59;;;;;;;16.65;9.73;;;;;;;;;;6216781;23;20171;-92
2023/08/16 03:00:09;;;;;;;16.15;9.95;;;;;;;;;;6214732;23;20159;-92
2023/08/16 03:03:14;;;;;;;16.02;9.20;;;;;;;;;;6214948;23;20200;-91
2023/08/16 03:06:19;;;;;;;14.43;9.15;;;;;;;;;;6215530;23;20206;-90
2023/08/16 03:09:24;;;;;;;19.42;8.85;;;;;;;;;;6215127;23;20175;-93
2023/08/16 03:12:29;;;;;;;13.98;9.10;;;;;;;;;;6215042;23;20171;-92
2023/08/16 03:15:36;;;;;;;16.10;9.23;;;;;;;;;;6213875;23;20171;-89
2023/08/16 03:18:42;;;;;;;14.50;10.15;;;;;;;;;;6214217;23;20159;-91
2023/08/16 03:21:47;;;;;;;14.73;9.52;;;;;;;;;;6214772;23;20166;-92
2023/08/16 03:24:52;;;;;;;17.73;11.40;;;;;;;;;;6216814;23;20175;-93
2023/08/16 03:27:59;;;;;;;16.00;10.65;;;;;;;;;;6200503;23;20174;-93
2023/08/16 03:31:09;;;;;;;19.67;11.38;;;;;;;;;;6217149;23;20150;-91
2023/08/16 03:34:16;;;;;;;18.70;11.05;;;;;;;;;;6218036;23;20156;-94
2023/08/16 03:37:22;;;;;;;21.45;11.18;;;;;;;;;;6216286;23;20171;-91
2023/08/16 03:40:28;;;;;;;20.85;12.00;;;;;;;;;;6217314;23;20180;-93
2023/08/16 03:43:36;;;;;;;19.65;12.18;;;;;;;;;;6215913;23;20167;-91
2023/08/16 03:46:43;;;;;;;23.92;11.45;;;;;;;;;;6214122;23;20513;-91
2023/08/16 03:49:48;;;;;;;17.58;11.52;;;;;;;;;;6213989;23;20178;-89
2023/08/16 03:52:54;;;;;;;18.00;11.30;;;;;;;;;;6213949;23;20246;-92
2023/08/16 03:56:00;;;;;;;21.45;11.45;;;;;;;;;;6216281;23;20207;-90
2023/08/16 03:59:05;;;;;;;22.45;11.40;;;;;;;;;;6214901;23;20170;-92
2023/08/16 04:06:06;;;;;;;20.30;10.45;;;;;;;;;;6217034;23;20195;-91
2023/08/16 04:09:11;;;;;;;19.38;9.52;;;;;;;;;;6216258;23;20206;-93
2023/08/16 04:12:16;;;;;;;19.58;10.75;;;;;;;;;;6215271;23;20215;-89
2023/08/16 04:15:22;;;;;;;16.80;10.65;;;;;;;;;;6215478;23;20170;-91
2023/08/16 04:18:29;;;;;;;18.95;10.50;;;;;;;;;;6216734;23;21080;-91
2023/08/16 04:21:38;;;;;;;15.75;11.10;;;;;;;;;;6216530;23;20171;-94
2023/08/16 04:24:43;;;;;;;16.98;10.68;;;;;;;;;;6217220;23;20218;-89
2023/08/16 04:27:48;;;;;;;18.10;10.82;;;;;;;;;;6217216;23;20171;-91
2023/08/16 04:30:54;;;;;;;14.65;10.68;;;;;;;;;;6216314;23;20167;-90
2023/08/16 04:34:00;;;;;;;20.27;10.85;;;;;;;;;;6216944;23;20207;-90
2023/08/16 04:37:08;;;;;;;19.88;11.40;;;;;;;;;;6236408;23;20287;-90
2023/08/16 04:40:15;;;;;;;16.27;10.70;;;;;;;;;;6217138;23;20175;-90
2023/08/16 04:43:20;;;;;;;18.90;10.05;;;;;;;;;;6217031;23;20220;-92
2023/08/16 04:46:27;;;;;;;16.65;10.88;;;;;;;;;;6214417;23;20191;-90
2023/08/16 04:49:32;;;;;;;17.95;10.10;;;;;;;;;;6215894;23;20167;-91
2023/08/16 04:52:39;;;;;;;16.83;9.98;;;;;;;;;;6216314;23;20176;-92
2023/08/16 04:55:44;;;;;;;14.30;9.90;;;;;;;;;;6214628;23;20201;-90
2023/08/16 04:58:49;;;;;;;14.60;10.50;;;;;;;;;;6215051;23;20203;-93
2023/08/16 05:01:55;;;;;;;15.68;10.60;;;;;;;;;;6214134;23;20238;-89
2023/08/16 05:05:01;;;;;;;17.33;11.43;;;;;;;;;;6213083;23;20175;-89
2023/08/16 05:08:08;;;;;;;18.02;12.32;;;;;;;;;;6214963;23;20183;-94
2023/08/16 05:11:13;;;;;;;19.17;10.90;;;;;;;;;;6211670;23;20159;-90
2023/08/16 05:14:19;;;;;;;20.10;11.75;;;;;;;;;;6212088;23;20171;-91
2023/08/16 05:17:24;;;;;;;18.08;10.77;;;;;;;;;;6212380;23;20179;-90
2023/08/16 05:20:29;;;;;;;17.23;10.18;;;;;;;;;;6215661;23;20487;-90
2023/08/16 05:23:37;;;;;;;15.82;11.15;;;;;;;;;;6216687;23;20147;-91
2023/08/16 05:26:42;;;;;;;18.30;11.13;;;;;;;;;;6212850;23;20194;-91
2023/08/16 05:29:48;;;;;;;16.52;11.52;;;;;;;;;;6213077;23;20550;-93
2023/08/16 05:32:55;;;;;;;16.33;11.55;;;;;;;;;;6213802;23;20214;-88
2023/08/16 05:36:01;;;;;;;17.60;11.60;;;;;;;;;;6213365;23;20172;-90
2023/08/16 05:39:09;;;;;;;17.92;10.73;;;;;;;;;;6215539;23;20171;-90
2023/08/16 05:42:14;;;;;;;13.23;9.45;;;;;;;;;;6216388;23;20214;-91
2023/08/16 05:45:21;;;;;;;12.35;9.10;;;;;;;;;;6214483;23;20531;-91
2023/08/16 05:48:26;;;;;;;17.73;10.20;;;;;;;;;;6215978;23;20228;-91
2023/08/16 05:51:32;;;;;;;18.27;11.30;;;;;;;;;;6216435;23;20199;-89
2023/08/16 05:54:39;;;;;;;19.35;11.52;;;;;;;;;;6215983;23;20163;-90
2023/08/16 05:57:47;;;;;;;12.85;8.90;;;;;;;;;;6216589;23;20167;-91
2023/08/16 06:00:52;;;;;;;21.23;10.05;;;;;;;;;;6217288;23;20240;-92
2023/08/16 06:03:59;;;;;;;13.70;9.45;;;;;;;;;;6216260;23;20613;-90
2023/08/16 06:07:04;;;;;;;15.40;9.05;;;;;;;;;;6215638;23;20191;-90
2023/08/16 06:10:11;;;;;;;13.65;9.82;;;;;;;;;;6216254;23;20171;-91
2023/08/16 06:13:16;;;;;;;14.75;9.68;;;;;;;;;;6215870;23;20151;-92
2023/08/16 06:16:22;;;;;;;15.00;8.40;;;;;;;;;;6218592;23;20187;-89
2023/08/16 06:19:27;;;;;;;11.80;8.15;;;;;;;;;;6216224;23;20235;-91
2023/08/16 06:22:33;;;;;;;14.07;8.90;;;;;;;;;;6214146;23;20167;-89
2023/08/16 06:25:41;;;;;;;13.13;9.20;;;;;;;;;;6213835;23;20171;-92
2023/08/16 06:28:47;;;;;;;24.27;16.33;;;;;;;;;;6214141;23;20175;-94
2023/08/16 06:31:54;;;;;;;12.20;8.70;;;;;;;;;;6215354;23;20211;-91
2023/08/16 06:35:00;;;;;;;14.73;8.63;;;;;;;;;;6214707;23;20178;-92
2023/08/16 06:38:06;;;;;;;14.85;9.13;;;;;;;;;;6213007;23;20162;-93
2023/08/16 06:41:21;;;;;;;12.23;8.52;;;;;;;;;;6212585;23;20171;-91
2023/08/16 06:44:28;;;;;;;11.13;8.32;;;;;;;;;;6213576;23;20166;-91
2023/08/16 06:47:34;;;;;;;10.15;8.15;;;;;;;;;;6213079;23;20195;-94
2023/08/16 06:50:39;;;;;;;13.40;7.55;;;;;;;;;;6213662;23;20186;-94
2023/08/16 06:53:45;;;;;;;10.27;7.65;;;;;;;;;;6213353;23;20171;-90
2023/08/16 06:56:57;;;;;;;10.85;7.85;;;;;;;;;;6213317;23;20170;-89
2023/08/16 07:00:04;;;;;;;11.38;8.32;;;;;;;;;;6214298;23;20255;-90
2023/08/16 07:03:21;;;;;;;20.30;8.65;;;;;;;;;;6218588;23;20171;-91
2023/08/16 07:06:27;;;;;;;16.85;9.68;;;;;;;;;;6216494;23;20193;-92
2023/08/16 07:09:32;;;;;;;14.02;9.57;;;;;;;;;;6215116;23;20187;-90
2023/08/16 07:12:39;;;;;;;18.52;9.20;;;;;;;;;;6216468;23;20167;-90
2023/08/16 07:15:44;;;;;;;15.55;9.63;;;;;;;;;;6213873;23;20547;-91
2023/08/16 07:18:50;;;;;;;13.65;9.20;;;;;;;;;;6215753;23;20159;-92
2023/08/16 07:21:56;;;;;;;12.45;8.25;;;;;;;;;;6214919;23;20210;-92
2023/08/16 07:25:02;;;;;;;10.50;7.40;;;;;;;;;;6214124;23;20669;-90
2023/08/16 07:28:09;;;;;;;15.77;6.78;;;;;;;;;;6214183;23;20194;-90
2023/08/16 07:31:14;;;;;;;10.60;6.90;;;;;;;;;;6214294;23;20167;-89
2023/08/16 07:34:19;;;;;;;10.95;6.43;;;;;;;;;;6215879;23;20164;-92
2023/08/16 07:37:28;;;;;;;13.35;7.00;;;;;;;;;;6215912;23;20170;-91
2023/08/16 07:40:33;;;;;;;13.88;6.03;;;;;;;;;;6214459;23;20230;-91
2023/08/16 07:43:41;;;;;;;7.40;5.68;;;;;;;;;;6215052;23;20167;-92
2023/08/16 07:46:46;;;;;;;9.43;5.82;;;;;;;;;;6215925;23;20182;-92
2023/08/16 07:49:51;;;;;;;8.63;5.13;;;;;;;;;;6214914;23;20199;-93
2023/08/16 07:52:58;;;;;;;6.30;4.95;;;;;;;;;;6216559;23;20492;-94
2023/08/16 07:56:04;;;;;;;6.90;4.40;;;;;;;;;;6215307;23;20158;-91
2023/08/16 07:59:11;;;;;;;7.22;4.43;;;;;;;;;;6214019;23;20170;-93
2023/08/16 08:02:17;;;;;;;6.18;3.60;;;;;;;;;;6216028;23;20231;-92
2023/08/16 08:08:42;;;;;;;7.10;3.92;;;;;;;;;;6218487;23;20178;-89
2023/08/16 08:11:49;;;;;;;5.78;4.15;;;;;;;;;;6200759;23;20206;-91
2023/08/16 08:17:57;;;;;;;5.55;3.50;;;;;;;;;;6209571;22;20195;-90
2023/08/16 08:21:06;;;;;;;6.80;3.15;;;;;;;;;;6219414;23;20174;-90
2023/08/16 08:24:12;;;;;;;5.07;3.67;;;;;;;;;;6220469;23;20167;-92
2023/08/16 08:27:17;;;;;;;8.23;3.70;;;;;;;;;;6218867;23;20230;-92
2023/08/16 08:30:25;;;;;;;6.28;2.90;;;;;;;;;;6218858;23;20235;-92
2023/08/16 08:33:33;;;;;;;4.57;3.20;;;;;;;;;;6218717;23;20170;-93
2023/08/16 08:36:38;;;;;;;5.00;3.08;;;;;;;;;;6217443;23;20238;-93
2023/08/16 08:39:45;;;;;;;5.00;3.05;;;;;;;;;;6218658;23;20166;-91
2023/08/16 08:42:51;;;;;;;4.78;3.00;;;;;;;;;;6218174;23;20170;-92
2023/08/16 08:46:00;;;;;;;5.20;3.35;;;;;;;;;;6214884;23;20167;-91
2023/08/16 08:49:08;;;;;;;7.35;3.40;;;;;;;;;;6199327;23;20194;-92
2023/08/16 08:52:15;;;;;;;6.72;3.50;;;;;;;;;;6215617;23;20231;-92
2023/08/16 08:55:21;;;;;;;4.57;2.63;;;;;;;;;;6215165;23;20147;-93
2023/08/16 08:58:28;;;;;;;8.95;3.30;;;;;;;;;;6215961;23;20172;-93
2023/08/16 09:01:34;;;;;;;4.72;3.63;;;;;;;;;;6214056;23;20175;-92
2023/08/16 09:04:42;;;;;;;5.97;2.97;;;;;;;;;;6217621;23;20150;-93
2023/08/16 09:07:48;;;;;;;5.15;2.90;;;;;;;;;;6214125;23;20190;-90
2023/08/16 09:10:54;;;;;;;5.75;3.10;;;;;;;;;;6215933;23;20233;-91
2023/08/16 09:14:02;;;;;;;4.60;2.75;;;;;;;;;;6215614;23;20198;-93
2023/08/16 09:17:07;;;;;;;5.32;3.20;;;;;;;;;;6216112;23;20236;-94
2023/08/16 09:20:15;;;;;;;7.28;3.03;;;;;;;;;;6215514;23;20166;-91
2023/08/16 09:23:21;;;;;;;6.10;2.65;;;;;;;;;;6216206;23;20167;-91
2023/08/16 09:26:29;;;;;;;3.90;2.63;;;;;;;;;;6217709;23;20504;-91
2023/08/16 09:29:34;;;;;;;4.57;2.95;;;;;;;;;;6214177;23;20174;-92
2023/08/16 09:32:40;;;;;;;3.72;2.58;;;;;;;;;;6215678;23;20170;-93
2023/08/16 09:35:50;;;;;;;5.85;2.90;;;;;;;;;;6216345;23;20166;-90
2023/08/16 09:39:01;;;;;;;5.45;2.53;;;;;;;;;;6215583;23;20157;-92
2023/08/16 09:42:10;;;;;;;6.88;2.55;;;;;;;;;;6216001;23;20549;-91
2023/08/16 11:52:14;;;;;;;5.40;2.90;;;;;;;;;;6222935;22;20235;-91
2023/08/16 11:55:25;;;;;;;6.03;3.10;;;;;;;;;;6266915;22;20166;-90
2023/08/16 11:58:31;;;;;;;6.10;3.10;;;;;;;;;;6267118;23;20177;-91
2023/08/16 12:01:37;;;;;;;4.57;3.08;;;;;;;;;;6268119;23;20170;-90
2023/08/16 12:04:43;;;;;;;5.53;2.88;;;;;;;;;;6266162;22;20173;-92
2023/08/16 12:07:52;;;;;;;4.57;3.55;;;;;;;;;;6266989;22;20201;-90
2023/08/16 12:17:44;;;;;;;9.75;3.78;;;;;;;;;;6267185;22;20169;-89
2023/08/16 12:20:52;;;;;;;5.40;3.28;;;;;;;;;;6265802;23;20194;-91
2023/08/16 12:24:03;;;;;;;7.40;3.28;;;;;;;;;;6248408;23;20223;-92
2023/08/16 12:27:10;;;;;;;7.28;3.30;;;;;;;;;;6266338;22;20221;-92
2023/08/16 12:30:16;;;;;;;6.18;3.05;;;;;;;;;;6266718;22;20166;-92
2023/08/16 12:33:22;;;;;;;4.15;3.17;;;;;;;;;;6284376;22;20165;-92
2023/08/16 12:36:28;;;;;;;5.90;3.40;;;;;;;;;;6285429;22;20181;-91
2023/08/16 12:39:39;;;;;;;5.97;3.50;;;;;;;;;;6266087;22;20185;-94
2023/08/16 12:42:45;;;;;;;5.38;3.55;;;;;;;;;;6283746;22;20166;-92
2023/08/16 12:45:51;;;;;;;7.05;4.10;;;;;;;;;;6283108;22;20169;-91
2023/08/16 12:48:58;;;;;;;6.22;3.65;;;;;;;;;;6284017;22;20268;-92
2023/08/16 12:52:04;;;;;;;8.55;3.42;;;;;;;;;;6266544;23;20189;-91
2023/08/16 12:55:12;;;;;;;7.78;3.67;;;;;;;;;;6267100;22;20174;-91
2023/08/16 12:58:51;;;;;;;7.00;3.88;;;;;;;;;;6265558;22;20178;-92
2023/08/16 13:02:03;;;;;;;8.93;4.20;;;;;;;;;;6266774;22;20214;-91
2023/08/16 13:05:12;;;;;;;8.30;4.35;;;;;;;;;;6265770;22;20157;-91
2023/08/16 13:08:21;;;;;;;7.47;3.88;;;;;;;;;;6267236;22;20232;-92
2023/08/16 13:11:28;;;;;;;6.50;4.30;;;;;;;;;;6264424;22;20217;-91
2023/08/16 13:14:35;;;;;;;8.43;4.53;;;;;;;;;;6266036;22;20232;-92
2023/08/16 13:17:41;;;;;;;5.20;3.65;;;;;;;;;;6263522;22;20327;-90
2023/08/16 13:20:49;;;;;;;7.07;4.03;;;;;;;;;;6264368;22;20166;-91
2023/08/16 13:23:55;;;;;;;9.73;4.80;;;;;;;;;;6283397;22;20213;-93
2023/08/16 13:27:03;;;;;;;6.95;3.65;;;;;;;;;;6263918;22;20173;-89
2023/08/16 13:30:11;;;;;;;4.70;3.40;;;;;;;;;;6282311;22;20182;-90
2023/08/16 13:33:18;;;;;;;5.88;3.50;;;;;;;;;;6262505;23;20205;-92
2023/08/16 13:36:23;;;;;;;5.82;3.35;;;;;;;;;;6262373;22;20165;-92
2023/08/16 13:39:29;;;;;;;4.80;2.95;;;;;;;;;;6259290;22;20239;-91
2023/08/16 13:42:36;;;;;;;3.63;2.83;;;;;;;;;;6256198;23;20169;-91
2023/08/16 13:45:44;;;;;;;4.20;2.30;;;;;;;;;;6256382;23;20173;-93
2023/08/16 13:48:48;;;;;;;5.53;2.70;;;;;;;;;;6256422;23;20232;-90
2023/08/16 13:51:53;;;;;;;5.35;2.83;;;;;;;;;;6256983;22;20184;-90
2023/08/16 13:54:58;;;;;;;4.38;2.85;;;;;;;;;;6256502;22;20170;-90
2023/08/16 13:58:05;;;;;;;6.18;2.70;;;;;;;;;;6257415;23;20169;-89
2023/08/16 14:01:10;;;;;;;3.30;2.63;;;;;;;;;;6259093;22;20151;-90
2023/08/16 14:04:16;;;;;;;5.55;3.20;;;;;;;;;;6259577;23;20226;-90
2023/08/16 14:07:21;;;;;;;4.93;3.40;;;;;;;;;;6259957;22;20170;-89
2023/08/16 14:10:26;;;;;;;4.95;2.20;;;;;;;;;;6259822;23;20211;-91
2023/08/16 14:13:33;;;;;;;4.40;2.15;;;;;;;;;;6260608;22;20170;-90
2023/08/16 14:16:43;;;;;;;6.40;2.60;;;;;;;;;;6261870;22;20197;-89
2023/08/16 14:19:48;;;;;;;5.60;2.50;;;;;;;;;;6263328;22;20175;-91
2023/08/16 14:22:53;;;;;;;6.13;2.78;;;;;;;;;;6278038;22;20177;-92
2023/08/16 14:25:58;;;;;;;6.53;2.50;;;;;;;;;;6260761;22;20171;-90
2023/08/16 14:29:06;;;;;;;5.20;2.40;;;;;;;;;;6259371;22;20196;-92
2023/08/16 14:32:11;;;;;;;6.70;2.72;;;;;;;;;;6262235;22;20206;-90
2023/08/16 14:35:17;;;;;;;3.53;2.40;;;;;;;;;;6262670;23;20237;-91
2023/08/16 14:38:22;;;;;;;4.15;2.88;;;;;;;;;;6263152;22;20240;-89
2023/08/16 14:41:27;;;;;;;5.57;2.45;;;;;;;;;;6263847;22;20218;-92
2023/08/16 14:44:35;;;;;;;5.53;2.47;;;;;;;;;;6261782;23;20169;-91
2023/08/16 14:47:41;;;;;;;5.88;2.42;;;;;;;;;;6260054;22;20206;-91
2023/08/16 14:50:46;;;;;;;5.35;2.92;;;;;;;;;;6262198;22;20169;-88
2023/08/16 14:53:51;;;;;;;3.20;2.33;;;;;;;;;;6262170;22;20161;-92
2023/08/16 14:56:56;;;;;;;7.90;2.70;;;;;;;;;;6262634;22;20166;-91
2023/08/16 15:00:07;;;;;;;3.78;2.40;;;;;;;;;;6260919;22;20173;-91
2023/08/16 15:03:12;;;;;;;3.63;2.35;;;;;;;;;;6256929;23;20170;-89
2023/08/16 15:06:17;;;;;;;3.17;1.98;;;;;;;;;;6257435;22;20153;-91
2023/08/16 15:09:22;;;;;;;4.20;2.10;;;;;;;;;;6257751;22;20201;-89
2023/08/16 15:12:27;;;;;;;6.15;2.30;;;;;;;;;;6259412;23;20165;-91
2023/08/16 15:15:34;;;;;;;4.13;2.47;;;;;;;;;;6256773;22;20189;-91
2023/08/16 15:18:38;;;;;;;3.13;2.40;;;;;;;;;;6256670;22;20165;-89
2023/08/16 15:21:44;;;;;;;3.60;2.42;;;;;;;;;;6261193;22;20166;-90
2023/08/16 15:24:49;;;;;;;5.43;2.50;;;;;;;;;;6257272;22;20166;-92
2023/08/16 15:27:54;;;;;;;4.35;2.40;;;;;;;;;;6258923;22;20493;-90
2023/08/16 15:31:01;;;;;;;4.55;2.50;;;;;;;;;;6259763;22;20165;-90
2023/08/16 15:34:07;;;;;;;3.45;1.98;;;;;;;;;;6259939;22;20166;-92
2023/08/16 15:37:19;;;;;;;6.95;2.58;;;;;;;;;;6258920;22;20205;-90
2023/08/16 15:40:24;;;;;;;5.00;3.00;;;;;;;;;;6259023;23;20174;-89
2023/08/16 15:43:30;;;;;;;6.25;3.00;;;;;;;;;;6258907;22;20165;-89
2023/08/16 15:46:37;;;;;;;5.60;3.08;;;;;;;;;;6261036;22;20241;-90
2023/08/16 15:49:43;;;;;;;6.95;2.80;;;;;;;;;;6256798;23;20193;-90
2023/08/16 15:52:48;;;;;;;5.30;2.78;;;;;;;;;;6258456;23;20605;-90
2023/08/16 15:55:54;;;;;;;7.70;2.72;;;;;;;;;;6256992;22;20234;-91
2023/08/16 15:58:59;;;;;;;4.45;2.70;;;;;;;;;;6259133;22;20617;-91
2023/08/16 16:02:06;;;;;;;5.20;3.05;;;;;;;;;;6258360;22;20222;-91
2023/08/16 16:05:11;;;;;;;6.40;2.90;;;;;;;;;;6258330;23;20629;-90
2023/08/16 16:08:16;;;;;;;5.82;3.15;;;;;;;;;;6253902;22;20190;-89
2023/08/16 16:11:25;;;;;;;6.28;2.90;;;;;;;;;;6254559;22;20197;-90
2023/08/16 16:14:30;;;;;;;24.80;15.27;;;;;;;;;;6255649;22;20222;-92
2023/08/16 16:17:37;;;;;;;5.32;3.50;;;;;;;;;;6257399;22;20669;-90
2023/08/16 16:20:42;;;;;;;12.57;2.78;;;;;;;;;;6257152;22;20170;-89
2023/08/16 16:23:47;;;;;;;6.35;3.00;;;;;;;;;;6257726;22;20219;-88
2023/08/16 16:26:52;;;;;;;6.18;3.42;;;;;;;;;;6261888;22;20255;-90
2023/08/16 16:29:56;;;;;;;5.10;3.00;;;;;;;;;;6261114;22;20197;-90
2023/08/16 16:33:04;;;;;;;5.90;3.03;;;;;;;;;;6260626;22;20658;-89
2023/08/16 16:36:10;;;;;;;8.38;3.30;;;;;;;;;;6275462;22;20286;-91
2023/08/16 16:39:16;;;;;;;5.68;3.13;;;;;;;;;;6256886;23;20229;-89
2023/08/16 16:42:20;;;;;;;4.93;3.03;;;;;;;;;;6259508;22;20167;-90
2023/08/16 16:45:26;;;;;;;5.30;3.00;;;;;;;;;;6259193;23;20170;-91
2023/08/16 16:48:32;;;;;;;4.93;2.80;;;;;;;;;;6259746;22;20190;-91
2023/08/16 16:51:38;;;;;;;4.03;3.22;;;;;;;;;;6256924;23;20239;-90
2023/08/16 16:54:43;;;;;;;8.90;4.60;;;;;;;;;;6259842;22;20147;-89
2023/08/16 16:57:48;;;;;;;4.78;3.25;;;;;;;;;;6258859;22;20170;-90
2023/08/16 17:00:55;;;;;;;7.15;3.97;;;;;;;;;;6263965;23;20231;-90
2023/08/16 17:04:03;;;;;;;9.35;3.40;;;;;;;;;;6277738;22;20247;-87
2023/08/16 17:07:09;;;;;;;9.00;3.22;;;;;;;;;;6256694;22;20206;-89
2023/08/16 17:10:14;;;;;;;6.75;3.08;;;;;;;;;;6257837;22;20206;-89
2023/08/16 17:13:19;;;;;;;5.45;3.58;;;;;;;;;;6256921;23;20198;-87
2023/08/16 17:16:25;;;;;;;7.35;3.40;;;;;;;;;;6259363;22;20170;-89
2023/08/16 17:19:32;;;;;;;6.55;3.78;;;;;;;;;;6257142;23;20493;-89
2023/08/16 17:22:37;;;;;;;15.45;4.60;;;;;;;;;;6256094;23;20166;-88
2023/08/16 17:25:44;;;;;;;10.25;7.78;;;;;;;;;;6258344;23;20163;-90
2023/08/16 17:28:50;;;;;;;7.18;3.63;;;;;;;;;;6254977;23;20209;-90
2023/08/16 17:31:55;;;;;;;8.05;4.20;;;;;;;;;;6256923;23;20234;-90
2023/08/16 17:35:01;;;;;;;8.70;3.75;;;;;;;;;;6256793;23;20332;-90
2023/08/16 17:38:06;;;;;;;10.15;4.03;;;;;;;;;;6256617;23;20175;-90
2023/08/16 17:41:13;;;;;;;6.30;3.50;;;;;;;;;;6257145;22;20158;-91
2023/08/16 17:44:20;;;;;;;6.38;3.40;;;;;;;;;;6257089;23;20171;-90
2023/08/16 17:47:25;;;;;;;7.20;3.50;;;;;;;;;;6258126;22;20290;-89
2023/08/16 17:50:32;;;;;;;6.03;4.07;;;;;;;;;;6258401;23;20197;-89
2023/08/16 17:53:41;;;;;;;9.20;4.78;;;;;;;;;;6253770;23;20237;-89
2023/08/16 17:56:46;;;;;;;5.72;3.47;;;;;;;;;;6257085;23;20149;-88
2023/08/16 17:59:50;;;;;;;6.32;3.38;;;;;;;;;;6255296;23;20162;-89
2023/08/16 18:02:56;;;;;;;6.00;3.65;;;;;;;;;;6256865;23;20178;-89
2023/08/16 18:06:02;;;;;;;10.43;3.58;;;;;;;;;;6258089;23;20166;-91
2023/08/16 18:09:07;;;;;;;6.25;3.42;;;;;;;;;;6255614;22;20193;-89
2023/08/16 18:12:12;;;;;;;7.55;3.90;;;;;;;;;;6258677;22;20155;-89
2023/08/16 18:15:17;;;;;;;7.35;4.22;;;;;;;;;;6258400;22;20167;-90
2023/08/16 18:18:24;;;;;;;11.23;4.57;;;;;;;;;;6257665;22;20625;-90
2023/08/16 18:21:32;;;;;;;7.80;4.93;;;;;;;;;;6258389;23;20254;-91
2023/08/16 18:24:38;;;;;;;12.38;5.00;;;;;;;;;;6258467;23;20183;-89
2023/08/16 18:27:43;;;;;;;6.20;3.95;;;;;;;;;;6259713;22;20158;-91
2023/08/16 18:30:49;;;;;;;8.50;4.10;;;;;;;;;;6261053;22;20221;-90
2023/08/16 18:33:54;;;;;;;8.50;4.28;;;;;;;;;;6258145;23;20163;-91
2023/08/16 18:37:01;;;;;;;9.57;3.97;;;;;;;;;;6260120;23;20182;-90
2023/08/16 18:40:06;;;;;;;11.93;4.20;;;;;;;;;;6259951;23;20167;-91
2023/08/16 18:43:11;;;;;;;6.90;4.50;;;;;;;;;;6260700;22;20154;-91
2023/08/16 18:46:17;;;;;;;8.65;4.40;;;;;;;;;;6258960;22;20167;-91
2023/08/16 18:49:22;;;;;;;8.70;4.15;;;;;;;;;;6259495;22;20283;-92
2023/08/16 18:52:29;;;;;;;7.25;3.60;;;;;;;;;;6260307;22;20209;-91
2023/08/16 18:55:34;;;;;;;15.02;4.18;;;;;;;;;;6260242;22;20224;-90
2023/08/16 18:58:41;;;;;;;9.02;3.97;;;;;;;;;;6260415;22;20216;-90
2023/08/16 19:01:50;;;;;;;9.48;4.25;;;;;;;;;;6259389;22;20162;-90
2023/08/16 19:04:55;;;;;;;10.07;4.00;;;;;;;;;;6258785;22;20167;-90
2023/08/16 19:08:02;;;;;;;7.65;4.13;;;;;;;;;;6257799;22;20161;-91
2023/08/16 19:11:07;;;;;;;12.60;4.93;;;;;;;;;;6258395;22;20269;-91
2023/08/16 19:14:14;;;;;;;11.88;5.03;;;;;;;;;;6259444;22;20194;-91
2023/08/16 19:17:21;;;;;;;10.32;4.95;;;;;;;;;;6257343;22;20166;-92
2023/08/16 19:20:27;;;;;;;13.43;4.88;;;;;;;;;;6258796;22;20158;-91
2023/08/16 19:23:34;;;;;;;9.88;4.68;;;;;;;;;;6258727;22;20166;-91
2023/08/16 19:26:39;;;;;;;13.82;5.05;;;;;;;;;;6257124;22;20274;-89
2023/08/16 19:29:46;;;;;;;9.95;5.80;;;;;;;;;;6259253;22;20221;-91
2023/08/16 19:32:56;;;;;;;13.50;5.18;;;;;;;;;;6257488;23;20171;-92
2023/08/16 19:36:01;;;;;;;10.98;4.65;;;;;;;;;;6257436;22;20173;-92
2023/08/16 19:39:08;;;;;;;9.18;5.00;;;;;;;;;;6258687;23;20244;-91
2023/08/16 19:42:13;;;;;;;10.30;5.20;;;;;;;;;;6256004;22;20166;-92
2023/08/16 19:45:20;;;;;;;10.88;5.75;;;;;;;;;;6259305;22;20151;-91
2023/08/16 19:48:28;;;;;;;17.95;8.82;;;;;;;;;;6256810;23;20190;-92
2023/08/16 19:51:33;;;;;;;8.55;6.18;;;;;;;;;;6258436;23;20186;-91
2023/08/16 19:54:42;;;;;;;8.60;5.13;;;;;;;;;;6257870;23;20170;-90
2023/08/16 19:57:47;;;;;;;9.73;5.20;;;;;;;;;;6257763;22;20167;-91
2023/08/16 20:00:52;;;;;;;11.80;5.25;;;;;;;;;;6259746;22;20158;-90
2023/08/16 20:03:58;;;;;;;13.43;5.32;;;;;;;;;;6259667;22;20166;-91
2023/08/16 20:07:03;;;;;;;10.05;5.25;;;;;;;;;;6261138;22;20166;-90
2023/08/16 20:10:12;;;;;;;8.73;5.57;;;;;;;;;;6259366;23;20195;-91
2023/08/16 20:13:18;;;;;;;18.23;5.68;;;;;;;;;;6259240;22;20159;-91
2023/08/16 20:16:24;;;;;;;8.48;5.68;;;;;;;;;;6262003;23;20261;-89
2023/08/16 20:19:33;;;;;;;11.15;5.45;;;;;;;;;;6278594;22;20245;-93
2023/08/16 20:22:38;;;;;;;8.50;5.75;;;;;;;;;;6260320;23;20162;-90
2023/08/16 20:25:45;;;;;;;10.45;6.03;;;;;;;;;;6259243;23;20170;-90
2023/08/16 20:28:51;;;;;;;12.82;6.50;;;;;;;;;;6258887;22;20190;-88
2023/08/16 20:31:56;;;;;;;12.13;6.05;;;;;;;;;;6263474;22;20154;-88
2023/08/16 20:35:03;;;;;;;11.30;5.95;;;;;;;;;;6262550;22;20609;-90
2023/08/16 20:38:09;;;;;;;13.68;6.20;;;;;;;;;;6262651;22;20217;-88
2023/08/16 20:41:15;;;;;;;8.35;6.05;;;;;;;;;;6263436;22;20159;-93
2023/08/16 20:44:21;;;;;;;10.77;5.93;;;;;;;;;;6259426;22;20653;-91
2023/08/16 20:47:26;;;;;;;14.00;6.50;;;;;;;;;;6258776;23;20170;-91
2023/08/16 20:50:31;;;;;;;11.57;5.80;;;;;;;;;;6261790;22;20198;-91